Airfield :
LOGIN :

Register | Disclaimer

   EN    FR    IT 

 










Legend :    VFR   Marginal VFR   IFR   Intensive IFR   Very Intensive IFR
Visi :
Ceiling :
>= 8 km
>= 3000ft
5 to 8 km
1000 to 3000 ft
1500m to 5 km
500 to 1000 ft
800 to 1500m
200 to 500 ft
< 800m
< 200 ft
Symbols :   Thunderstorms  Fog  Heavy snow  Heavy precipitations  Wind > 20 kt
SIGMETs :     Misc.  Thunderstorms  Icing  Turbulence  Mountain Waves  Volcanic Ashes






- Airport Elevation : 121 ft
- IATA code : HUY


EGNJ - Humberside

CURRENT METAR :
  • 142120Z AUTO 01008KT 9999 -RA SCT005/// BKN009/// BKN015/// 06/06 Q1005

EXPIRED METARs :
  • 142050Z 35009KT 8000 -RA BKN020 06/06 Q1005
  • 142020Z 36008KT 8000 -RA BKN020 06/06 Q1005
  • 141950Z 01008KT 8000 -RA SCT010 BKN018 06/05 Q1005
  • 141920Z 01011KT 8000 SCT010 BKN018 06/05 Q1004
  • 141850Z 01011KT 6000 SCT010 BKN018 OVC025 06/06 Q1004 RESHRA

TAF AMD TAF EGNJ
Valid from the 14 at 21:00 until the 15 at 06:00 UTC


142132Z 1421/1506 01005KT 9999 BKN004
BECMG 1421/1424 SCT030
TEMPO 1421/1423 4000 RA
PROB30 1423/1504 6000
TEMPO 1504/1506 8000 -SHRA BKN014
ATIS : +44 1652 682 020



MET'MAP, your aeronautical weather chart ! - Copyright ORBIFLY December 2007 - Disclaimer

ORBIFLY MET'MAP TEAM :

Programming & Development : Alexandra Zaïnal
Concept & Development : Baudouin d'Aumeries
Co-Development & Prog : Marc-Olivier Méhu
Technical & hardware support : Manuel Goepfert

Contact : metmap@orbifly.com




SOURCES & CREDITS :

   NOAA